This is the latest recevied weather packets stored in our database for station/object K7VLL. If no packets are shown the sender has not sent any weather packets the latest 10 day(s).
| Time | Temp. | Humidity | Pressure | Rain* | Wind** | Luminosity | Snow |
|---|---|---|---|---|---|---|---|
| 1788151080 | 85° F | 41% | 817.3 mmHg | 0 in | - | 0 W/m² | - |
| 1788149275 | 87° F | 38% | 817.3 mmHg | 0 in | - | 0 W/m² | - |
| 1788147474 | 87° F | 38% | 817.1 mmHg | 0 in | - | 0 W/m² | - |
| 1788145672 | 88° F | 35% | 816.8 mmHg | 0 in | - | 0 W/m² | - |
| 1788143870 | 89° F | 34% | 816.2 mmHg | 0 in | - | 0 W/m² | - |
| 1788142066 | 91° F | 35% | 815.7 mmHg | 0 in | - | 0 W/m² | - |
| 1788140265 | 93° F | 32% | 815.4 mmHg | 0 in | - | 4 W/m² | - |
| 1788138462 | 95° F | 30% | 815.3 mmHg | 0 in | - | 16 W/m² | - |
| 1788136658 | 96° F | 28% | 815.2 mmHg | 0 in | - | 35 W/m² | - |
| 1788134853 | 97° F | 28% | 815.2 mmHg | 0 in | - | 32 W/m² | - |
| 1788133050 | 99° F | 25% | 815.5 mmHg | 0 in | - | 71 W/m² | - |
| 1788131245 | 100° F | 25% | 815.5 mmHg | 0 in | - | 320 W/m² | - |
| 1788129444 | 101° F | 25% | 815.8 mmHg | 0 in | - | 103 W/m² | - |
| 1788127640 | 102° F | 23% | 816.4 mmHg | 0 in | - | 467 W/m² | - |
| 1788125839 | 103° F | 24% | 816.6 mmHg | 0 in | - | 195 W/m² | - |
| 1788124038 | 98° F | 26% | 817.1 mmHg | 0 in | - | 492 W/m² | - |
| 1788122237 | 100° F | 25% | 817.5 mmHg | 0 in | - | 634 W/m² | - |
| 1788120435 | 98° F | 28% | 817.9 mmHg | 0 in | - | 662 W/m² | - |
| 1788118633 | 98° F | 27% | 818.1 mmHg | 0 in | - | 612 W/m² | - |
| 1788116833 | 98° F | 28% | 818.5 mmHg | 0 in | - | 730 W/m² | - |
| 1788115034 | 98° F | 28% | 818.6 mmHg | 0 in | - | 820 W/m² | - |
| 1788113233 | 94° F | 35% | 818.9 mmHg | 0 in | - | 591 W/m² | - |
| 1788111430 | 96° F | 31% | 819.1 mmHg | 0 in | - | 606 W/m² | - |
| 1788109627 | 93° F | 34% | 819.4 mmHg | 0 in | - | 506 W/m² | - |
| 1788107828 | 90° F | 37% | 819.6 mmHg | 0 in | - | 115 W/m² | - |
* Rain latest hour (hover to see other rain measurements)
** Current wind speed in m/s (hover to see current wind gust speed)